Time;durP1;ratioP1;P1;durP2;ratioP2;P2;SDS_P1;SDS_P2;PMS_P1;PMS_P2;Temp;Humidity;BMP_temperature;BMP_pressure;BME280_temperature;BME280_humidity;BME280_pressure;Samples;Min_cycle;Max_cycle;Signal;HPM_P1;HPM_P2
2022/02/26 00:01:15;;;;;;;11.75;8.50;;;;;;;13.99;52.63;99985.84;1752328;80;21044;-68
2022/02/26 00:03:41;;;;;;;9.48;7.35;;;;;;;13.99;52.64;99989.03;1752878;81;21205;-68
2022/02/26 00:06:08;;;;;;;9.78;8.50;;;;;;;13.98;52.66;99994.86;1752924;81;20978;-69
2022/02/26 00:08:34;;;;;;;10.03;8.70;;;;;;;13.98;52.66;99996.19;1752809;81;21084;-67
2022/02/26 00:11:01;;;;;;;10.78;8.38;;;;;;;13.98;52.67;99994.03;1778778;79;21026;-69
2022/02/26 00:13:29;;;;;;;10.05;9.05;;;;;;;13.98;52.67;100002.05;1787651;79;21493;-67
2022/02/26 00:15:55;;;;;;;9.35;8.38;;;;;;;13.97;52.68;100005.23;1769968;79;22248;-68
2022/02/26 00:18:22;;;;;;;9.08;7.87;;;;;;;13.96;52.68;100005.75;1765829;81;21009;-68
2022/02/26 00:20:48;;;;;;;11.53;8.80;;;;;;;13.96;52.68;100011.09;1774167;80;21612;-68
2022/02/26 00:23:14;;;;;;;9.55;8.30;;;;;;;13.96;52.68;100012.43;1784446;80;21049;-68
2022/02/26 00:25:41;;;;;;;10.25;8.40;;;;;;;13.96;52.69;100012.91;1784469;80;21552;-68
2022/02/26 00:28:09;;;;;;;8.90;7.92;;;;;;;13.95;52.68;100013.42;1793431;79;21140;-69
2022/02/26 00:30:35;;;;;;;9.38;8.35;;;;;;;13.95;52.69;100020.10;1797359;79;21040;-69
2022/02/26 00:33:01;;;;;;;9.75;8.23;;;;;;;13.96;52.69;100019.59;1794090;79;21010;-69
2022/02/26 00:35:28;;;;;;;9.30;7.83;;;;;;;13.95;52.70;100024.63;1789360;80;21001;-68
2022/02/26 00:37:55;;;;;;;8.75;7.85;;;;;;;13.95;52.71;100019.28;1794326;80;21061;-68
2022/02/26 00:40:21;;;;;;;9.20;8.05;;;;;;;13.95;52.70;100024.63;1789651;80;21159;-68
2022/02/26 00:42:47;;;;;;;9.28;8.00;;;;;;;13.94;52.72;100025.11;1794114;80;21057;-68
2022/02/26 00:45:14;;;;;;;7.97;7.00;;;;;;;13.94;52.74;100028.30;1789741;80;21529;-68
2022/02/26 00:47:41;;;;;;;8.65;7.62;;;;;;;13.93;52.73;100024.80;1797378;79;21044;-68
2022/02/26 00:50:09;;;;;;;8.88;7.97;;;;;;;13.93;52.73;100035.48;1767403;79;21021;-68
2022/02/26 00:52:35;;;;;;;8.35;7.35;;;;;;;13.92;52.74;100037.81;1792977;80;21137;-68
2022/02/26 00:55:05;;;;;;;9.15;8.13;;;;;;;13.92;52.75;100044.49;1765331;81;21571;-70
2022/02/26 00:57:31;;;;;;;8.58;7.67;;;;;;;13.91;52.75;100044.19;1793230;80;21001;-69
2022/02/26 00:59:58;;;;;;;9.03;7.42;;;;;;;13.92;52.75;100046.34;1765259;81;21458;-67
2022/02/26 01:02:24;;;;;;;10.25;7.70;;;;;;;13.91;52.80;100046.03;1793111;80;21035;-69
2022/02/26 01:04:51;;;;;;;8.93;7.45;;;;;;;13.91;52.78;100048.19;1795862;79;21193;-69
2022/02/26 01:07:17;;;;;;;8.88;7.50;;;;;;;13.90;52.80;100041.17;1821232;78;21041;-68
2022/02/26 01:09:44;;;;;;;7.90;7.08;;;;;;;13.90;52.81;100053.20;1789009;80;21520;-69
2022/02/26 01:12:11;;;;;;;7.97;6.78;;;;;;;13.90;52.79;100056.38;1783732;79;21021;-68
2022/02/26 01:14:38;;;;;;;8.63;7.58;;;;;;;13.90;52.80;100057.20;1793726;79;21493;-68
2022/02/26 01:17:06;;;;;;;8.35;7.47;;;;;;;13.89;52.81;100060.90;1794200;79;21146;-68
2022/02/26 01:19:34;;;;;;;8.53;7.62;;;;;;;13.88;52.81;100061.08;1789162;78;21088;-69
2022/02/26 01:22:01;;;;;;;7.67;6.85;;;;;;;13.89;52.80;100064.09;1820381;78;21009;-68
2022/02/26 01:24:28;;;;;;;7.75;6.95;;;;;;;13.88;52.81;100067.23;1779857;80;22042;-68
2022/02/26 01:26:55;;;;;;;7.72;6.83;;;;;;;13.88;52.83;100068.57;1773629;80;21057;-68
2022/02/26 01:29:21;;;;;;;8.05;6.85;;;;;;;13.87;52.81;100074.94;1792299;80;21498;-68
2022/02/26 01:31:48;;;;;;;7.45;6.33;;;;;;;13.87;52.81;100074.94;1779702;80;20995;-67
2022/02/26 01:34:14;;;;;;;7.15;6.42;;;;;;;13.87;52.81;100073.61;1794905;79;21540;-68
2022/02/26 01:36:40;;;;;;;7.08;6.37;;;;;;;13.86;52.83;100074.60;1802369;79;21025;-69
2022/02/26 01:39:08;;;;;;;7.17;6.35;;;;;;;13.85;52.83;100072.96;1801179;79;21644;-69
2022/02/26 01:41:35;;;;;;;8.38;6.95;;;;;;;13.85;52.83;100080.97;1777948;80;21158;-69
2022/02/26 01:44:01;;;;;;;7.62;6.53;;;;;;;13.84;52.85;100083.30;1790271;80;20990;-67
2022/02/26 01:46:28;;;;;;;7.65;6.60;;;;;;;13.84;52.85;100081.97;1790534;80;21006;-69
2022/02/26 01:48:55;;;;;;;7.22;6.47;;;;;;;13.83;52.84;100090.16;1788328;79;21061;-68
2022/02/26 01:51:21;;;;;;;8.35;6.70;;;;;;;13.83;52.85;100085.66;1773489;80;21052;-69
2022/02/26 01:53:48;;;;;;;6.55;5.83;;;;;;;13.82;52.85;100090.67;1773662;80;21090;-69
2022/02/26 01:56:14;;;;;;;7.25;6.33;;;;;;;13.83;52.84;100092.83;1777371;79;21057;-69
2022/02/26 01:58:40;;;;;;;6.87;6.15;;;;;;;13.81;52.85;100095.70;1792243;80;21025;-68
2022/02/26 02:01:08;;;;;;;7.33;6.17;;;;;;;13.81;52.87;100089.51;1794909;79;21517;-68
2022/02/26 02:03:35;;;;;;;7.58;6.25;;;;;;;13.81;52.86;100095.70;1805486;79;21016;-68
2022/02/26 02:06:02;;;;;;;6.45;5.72;;;;;;;13.81;52.84;100100.19;1805666;79;21787;-69
2022/02/26 02:08:29;;;;;;;6.37;5.42;;;;;;;13.80;52.85;100102.55;1805252;79;21065;-68
2022/02/26 02:10:56;;;;;;;6.83;5.47;;;;;;;13.80;52.86;100104.70;1796845;79;20990;-69
2022/02/26 02:13:23;;;;;;;6.97;5.70;;;;;;;13.79;52.88;100103.55;1786876;80;21034;-67
2022/02/26 02:15:50;;;;;;;6.22;5.53;;;;;;;13.79;52.88;100112.41;1789603;80;21058;-69
2022/02/26 02:18:17;;;;;;;6.08;5.47;;;;;;;13.77;52.90;100110.39;1762813;80;21105;-69
2022/02/26 02:20:44;;;;;;;6.72;5.45;;;;;;;13.77;52.88;100110.39;1789520;80;21490;-69
2022/02/26 02:25:45;;;;;;;6.90;5.85;;;;;;;13.82;52.88;100115.21;1883550;75;28546;-68
2022/02/26 02:28:12;;;;;;;7.62;6.05;;;;;;;13.76;52.87;100115.42;1826457;78;21537;-69
2022/02/26 02:30:39;;;;;;;7.40;5.80;;;;;;;13.76;52.86;100119.43;1825400;78;21241;-68
2022/02/26 02:33:06;;;;;;;6.05;5.10;;;;;;;13.75;52.90;100119.09;1826214;78;20926;-69
2022/02/26 02:35:37;;;;;;;6.62;5.92;;;;;;;13.75;52.90;100120.42;1826453;78;21017;-68
2022/02/26 02:38:14;;;;;;;5.85;5.20;;;;;;;13.74;52.88;100127.61;1842527;77;21022;-68
2022/02/26 02:40:46;;;;;;;6.53;5.42;;;;;;;13.75;52.88;100127.10;1826621;78;20918;-68
2022/02/26 02:43:14;;;;;;;5.65;4.80;;;;;;;13.73;52.92;100118.44;1826366;78;21064;-68
2022/02/26 02:45:40;;;;;;;6.00;4.65;;;;;;;13.72;52.92;100121.63;1826480;78;21031;-68
2022/02/26 02:48:07;;;;;;;6.55;5.28;;;;;;;13.71;52.94;100125.32;1825464;78;21029;-67
2022/02/26 02:50:33;;;;;;;7.78;5.95;;;;;;;13.71;52.92;100130.66;1826669;78;21041;-68
2022/02/26 02:53:00;;;;;;;5.97;4.92;;;;;;;13.70;52.93;100134.33;1826735;78;20978;-68
2022/02/26 02:55:26;;;;;;;5.90;4.85;;;;;;;13.69;52.94;100139.84;1826648;78;21216;-68
2022/02/26 02:57:55;;;;;;;6.72;5.00;;;;;;;13.69;52.95;100142.51;1826367;78;21041;-68
2022/02/26 03:00:21;;;;;;;6.12;5.53;;;;;;;13.69;52.94;100141.17;1826451;78;21013;-68
2022/02/26 03:02:47;;;;;;;6.17;4.90;;;;;;;13.68;52.92;100149.70;1826554;78;20990;-69
2022/02/26 03:05:20;;;;;;;5.50;4.80;;;;;;;13.68;52.95;100148.87;1825168;78;21516;-68
2022/02/26 03:07:46;;;;;;;5.00;4.50;;;;;;;13.68;52.96;100152.87;1826457;78;21136;-69
2022/02/26 03:10:12;;;;;;;5.60;5.10;;;;;;;13.66;52.96;100153.56;1826492;78;21628;-69
2022/02/26 03:12:39;;;;;;;5.30;4.80;;;;;;;13.67;52.98;100151.20;1826531;78;21057;-69
2022/02/26 03:15:07;;;;;;;4.72;4.22;;;;;;;13.65;52.97;100154.55;1835383;77;21002;-69
2022/02/26 03:17:34;;;;;;;5.33;4.10;;;;;;;13.65;52.97;100159.89;1860450;77;20962;-68
2022/02/26 03:20:01;;;;;;;5.85;5.03;;;;;;;13.65;52.97;100162.05;1845171;77;21019;-68
2022/02/26 03:22:27;;;;;;;4.90;4.40;;;;;;;13.65;52.97;100166.56;1825284;78;20982;-68
2022/02/26 03:24:53;;;;;;;6.05;4.83;;;;;;;13.64;52.96;100166.26;1799175;78;21007;-68
2022/02/26 03:27:20;;;;;;;4.62;4.10;;;;;;;13.63;52.97;100162.73;1793031;79;21495;-68
2022/02/26 03:29:46;;;;;;;4.87;4.47;;;;;;;13.64;52.98;100166.26;1818894;78;21021;-69
2022/02/26 03:32:14;;;;;;;5.25;4.20;;;;;;;13.62;52.96;100170.44;1826772;78;21577;-68
2022/02/26 03:34:40;;;;;;;4.95;4.42;;;;;;;13.61;52.96;100173.27;1815296;79;20990;-69
2022/02/26 03:37:07;;;;;;;4.30;3.90;;;;;;;13.60;52.97;100181.80;1814600;79;21077;-68
2022/02/26 03:39:34;;;;;;;4.62;4.08;;;;;;;13.60;52.98;100176.94;1813046;78;21037;-68
2022/02/26 03:42:03;;;;;;;4.92;4.30;;;;;;;13.59;52.97;100182.79;1819899;78;20998;-70
2022/02/26 03:44:30;;;;;;;4.97;4.47;;;;;;;13.59;52.99;100185.97;1824407;78;21127;-69
2022/02/26 03:46:58;;;;;;;4.78;4.28;;;;;;;13.59;52.99;100185.97;1814800;78;21081;-68
2022/02/26 03:49:24;;;;;;;4.72;4.22;;;;;;;13.59;52.99;100187.30;1814591;79;21080;-68
2022/02/26 03:51:51;;;;;;;5.78;4.12;;;;;;;13.57;52.97;100190.97;1814478;78;21018;-68
2022/02/26 03:54:17;;;;;;;4.03;3.62;;;;;;;13.56;52.98;100196.51;1814813;79;21572;-70
2022/02/26 03:56:44;;;;;;;4.60;4.20;;;;;;;13.55;52.99;100195.66;1789143;79;21094;-69
2022/02/26 03:59:11;;;;;;;4.87;4.15;;;;;;;13.55;53.00;100197.50;1782444;79;21490;-67
2022/02/26 04:01:37;;;;;;;4.50;4.10;;;;;;;13.54;53.00;100204.69;1782892;79;21005;-70
2022/02/26 04:04:04;;;;;;;5.35;3.65;;;;;;;13.53;52.99;100215.02;1812898;79;21517;-68
2022/02/26 04:06:30;;;;;;;4.78;4.28;;;;;;;13.53;53.01;100218.20;1814686;79;21017;-68
2022/02/26 04:08:57;;;;;;;4.90;4.30;;;;;;;13.52;53.02;100218.71;1814616;78;21111;-68
2022/02/26 04:11:23;;;;;;;5.35;4.05;;;;;;;13.51;53.03;100226.38;1815003;79;21013;-69
2022/02/26 04:13:50;;;;;;;4.85;4.35;;;;;;;13.50;53.04;100231.88;1787427;79;20999;-68
2022/02/26 04:16:16;;;;;;;4.22;3.83;;;;;;;13.50;53.03;100239.41;1782503;77;21049;-69
2022/02/26 04:18:43;;;;;;;4.53;4.10;;;;;;;13.49;53.03;100241.73;1799235;79;21026;-68
2022/02/26 04:21:09;;;;;;;4.58;3.77;;;;;;;13.49;53.03;100250.26;1814594;78;21047;-69
2022/02/26 04:23:35;;;;;;;4.85;4.20;;;;;;;13.48;53.02;100252.10;1776016;80;21514;-69
2022/02/26 04:26:02;;;;;;;4.25;3.83;;;;;;;13.48;53.02;100258.77;1759091;81;21002;-69
2022/02/26 04:28:28;;;;;;;4.45;4.05;;;;;;;13.47;53.01;100262.95;1745296;82;21536;-70
2022/02/26 04:30:55;;;;;;;4.85;3.90;;;;;;;13.45;53.06;100265.78;1763792;81;21058;-68
2022/02/26 04:33:21;;;;;;;4.03;3.62;;;;;;;13.45;53.06;100271.63;1764723;81;21119;-69
2022/02/26 04:35:48;;;;;;;4.22;3.67;;;;;;;13.44;53.06;100273.95;1778613;80;21018;-68
2022/02/26 04:38:14;;;;;;;6.15;4.10;;;;;;;13.43;53.05;100280.31;1766082;80;21209;-69
2022/02/26 04:40:40;;;;;;;4.28;3.87;;;;;;;13.43;53.07;100286.48;1763998;80;21030;-68
2022/02/26 04:43:07;;;;;;;4.08;3.58;;;;;;;13.42;53.08;100295.98;1734366;82;21018;-69
2022/02/26 04:45:33;;;;;;;4.67;4.10;;;;;;;13.42;53.07;100302.66;1734357;81;21101;-68
2022/02/26 04:48:01;;;;;;;4.85;3.58;;;;;;;13.40;53.05;100310.83;1762118;80;21094;-68
2022/02/26 04:50:28;;;;;;;4.42;3.85;;;;;;;13.39;53.10;100309.19;1734427;82;21054;-69
2022/02/26 04:52:54;;;;;;;4.25;3.77;;;;;;;13.37;53.10;100317.36;1755742;81;21609;-68
2022/02/26 04:55:21;;;;;;;4.42;3.98;;;;;;;13.37;53.08;100319.20;1764714;81;21082;-68
2022/02/26 04:57:47;;;;;;;4.62;3.92;;;;;;;13.36;53.10;100324.19;1764772;80;21543;-69
2022/02/26 05:00:15;;;;;;;4.78;3.90;;;;;;;13.37;53.12;100333.88;1764809;81;21046;-69
2022/02/26 05:02:41;;;;;;;3.50;3.20;;;;;;;13.35;53.12;100335.37;1764524;81;21011;-68
2022/02/26 05:05:08;;;;;;;4.28;3.70;;;;;;;13.35;53.15;100341.22;1735437;81;21054;-68
2022/02/26 05:07:35;;;;;;;3.75;3.45;;;;;;;13.34;53.14;100347.04;1734406;82;20999;-70
2022/02/26 05:10:02;;;;;;;3.85;3.45;;;;;;;13.34;53.16;100355.55;1734324;82;21097;-68
2022/02/26 05:12:29;;;;;;;4.50;3.50;;;;;;;13.34;53.14;100354.22;1734351;82;21073;-68
2022/02/26 05:14:56;;;;;;;4.15;3.72;;;;;;;13.33;53.15;100356.06;1746508;79;21031;-68
2022/02/26 05:17:22;;;;;;;4.03;3.47;;;;;;;13.32;53.16;100354.38;1796211;79;21026;-68
2022/02/26 05:19:49;;;;;;;4.80;4.15;;;;;;;13.32;53.16;100358.39;1794403;79;21069;-67
2022/02/26 05:22:15;;;;;;;5.08;3.90;;;;;;;13.31;53.15;100367.92;1763965;81;21158;-69
2022/02/26 05:24:42;;;;;;;3.90;3.50;;;;;;;13.30;53.18;100356.91;1764510;80;21662;-69
2022/02/26 05:27:10;;;;;;;3.65;3.27;;;;;;;13.29;53.18;100361.38;1764667;80;20999;-69
2022/02/26 05:29:36;;;;;;;3.30;2.98;;;;;;;13.28;53.19;100361.03;1764579;81;21035;-69
2022/02/26 05:32:04;;;;;;;4.33;3.52;;;;;;;13.28;53.20;100366.37;1764662;81;21022;-70
2022/02/26 05:34:32;;;;;;;4.33;3.92;;;;;;;13.28;53.21;100372.22;1764683;80;21113;-69
2022/02/26 05:36:58;;;;;;;5.37;3.72;;;;;;;13.27;53.22;100370.54;1763523;80;21517;-69
2022/02/26 05:39:25;;;;;;;3.92;3.05;;;;;;;13.28;53.21;100372.22;1764735;81;21031;-68
2022/02/26 05:41:51;;;;;;;4.00;3.52;;;;;;;13.26;53.22;100374.23;1768532;80;21475;-68
2022/02/26 05:44:17;;;;;;;4.35;3.92;;;;;;;13.26;53.23;100374.23;1775275;80;21086;-69
2022/02/26 05:46:44;;;;;;;4.17;3.27;;;;;;;13.26;53.27;100384.39;1774202;79;21051;-69
2022/02/26 05:49:10;;;;;;;4.45;3.75;;;;;;;13.25;53.27;100387.22;1769479;80;21042;-69
2022/02/26 05:51:37;;;;;;;4.37;3.65;;;;;;;13.25;53.27;100385.89;1747049;81;21014;-69
2022/02/26 05:54:03;;;;;;;3.87;3.45;;;;;;;13.26;53.28;100390.23;1766666;80;21558;-68
2022/02/26 05:56:30;;;;;;;3.72;3.33;;;;;;;13.25;53.28;100394.75;1731186;82;21042;-68
2022/02/26 05:58:56;;;;;;;4.00;3.60;;;;;;;13.25;53.28;100389.89;1731141;82;21172;-69
2022/02/26 06:01:23;;;;;;;4.08;3.42;;;;;;;13.26;53.28;100396.40;1731222;82;21502;-69
2022/02/26 06:03:49;;;;;;;4.70;3.87;;;;;;;13.27;53.32;100401.23;1760117;81;21089;-69
2022/02/26 06:06:15;;;;;;;4.05;3.65;;;;;;;13.26;53.30;100399.06;1764996;81;21002;-69
2022/02/26 06:08:42;;;;;;;4.47;3.77;;;;;;;13.27;53.30;100402.56;1764905;81;21062;-69
2022/02/26 06:11:08;;;;;;;3.98;3.37;;;;;;;13.28;53.31;100407.73;1760039;81;21141;-69
2022/02/26 06:13:35;;;;;;;4.28;3.65;;;;;;;13.28;53.30;100414.91;1734533;82;21062;-69
2022/02/26 06:16:01;;;;;;;3.75;3.17;;;;;;;13.29;53.33;100419.23;1734991;82;21062;-70
2022/02/26 06:18:30;;;;;;;3.60;3.10;;;;;;;13.30;53.32;100421.77;1734500;82;20991;-70
2022/02/26 06:20:56;;;;;;;4.55;3.35;;;;;;;13.31;53.33;100425.29;1734948;82;21306;-70
2022/02/26 06:23:22;;;;;;;4.17;3.33;;;;;;;13.32;53.32;100424.27;1757912;80;22097;-70
2022/02/26 06:25:49;;;;;;;4.28;3.52;;;;;;;13.33;53.33;100427.29;1764753;81;21058;-70
2022/02/26 06:28:16;;;;;;;3.72;3.33;;;;;;;13.33;53.32;100429.45;1764648;81;21003;-69
2022/02/26 06:30:42;;;;;;;3.85;3.47;;;;;;;13.35;53.33;100430.63;1764836;81;21015;-69
2022/02/26 06:33:12;;;;;;;4.53;3.35;;;;;;;13.36;53.35;100436.27;1765038;81;21042;-69
2022/02/26 06:35:37;;;;;;;3.92;3.35;;;;;;;13.36;53.35;100436.27;1764689;81;21074;-69
2022/02/26 06:38:04;;;;;;;4.42;3.60;;;;;;;13.37;53.34;100440.11;1764859;81;21062;-70
2022/02/26 06:40:30;;;;;;;4.45;3.85;;;;;;;13.39;53.36;100441.80;1764970;81;21030;-68
2022/02/26 06:42:57;;;;;;;3.85;3.45;;;;;;;13.40;53.37;100444.78;1764812;81;21031;-69
2022/02/26 06:45:23;;;;;;;3.58;3.25;;;;;;;13.41;53.37;100451.80;1763304;81;21042;-68
2022/02/26 06:47:50;;;;;;;3.47;3.17;;;;;;;13.41;53.34;100453.95;1757652;80;21480;-68
2022/02/26 06:50:16;;;;;;;4.40;3.98;;;;;;;13.43;53.37;100456.46;1773973;80;21045;-70
2022/02/26 06:52:42;;;;;;;4.47;3.77;;;;;;;13.43;53.39;100466.63;1784934;79;21068;-69
2022/02/26 06:55:10;;;;;;;3.90;3.30;;;;;;;13.44;53.38;100463.45;1734191;82;21086;-71
2022/02/26 06:57:37;;;;;;;4.20;3.60;;;;;;;13.45;53.36;100472.62;1759205;80;21541;-69
2022/02/26 07:00:05;;;;;;;5.05;3.67;;;;;;;13.46;53.37;100472.98;1767474;80;21103;-69
2022/02/26 07:02:33;;;;;;;3.90;3.50;;;;;;;13.48;53.38;100472.30;1764217;81;21018;-69
2022/02/26 07:04:59;;;;;;;3.85;3.45;;;;;;;13.49;53.39;100479.80;1764463;81;21042;-69
2022/02/26 07:07:25;;;;;;;3.83;3.10;;;;;;;13.50;53.40;100478.78;1765008;80;20988;-69
2022/02/26 07:09:52;;;;;;;3.50;3.20;;;;;;;13.51;53.42;100482.62;1764670;81;21015;-70
2022/02/26 07:12:19;;;;;;;4.80;3.52;;;;;;;13.53;53.40;100493.97;1764775;81;23305;-69
2022/02/26 07:14:46;;;;;;;4.62;4.00;;;;;;;13.55;53.38;100493.80;1764738;81;21054;-69
2022/02/26 07:17:14;;;;;;;3.52;3.20;;;;;;;13.57;53.39;100495.80;1764754;81;21034;-68
2022/02/26 07:19:40;;;;;;;3.90;3.42;;;;;;;13.58;53.38;100497.48;1753308;81;21499;-69
2022/02/26 07:22:06;;;;;;;4.03;3.33;;;;;;;13.59;53.38;100499.13;1742008;81;21086;-68
2022/02/26 07:24:33;;;;;;;3.75;3.35;;;;;;;13.60;53.38;100498.14;1764785;81;22564;-69
2022/02/26 07:26:59;;;;;;;4.17;3.52;;;;;;;13.63;53.34;100499.13;1782136;80;21013;-69
2022/02/26 07:29:26;;;;;;;3.98;3.50;;;;;;;13.64;53.35;100506.14;1784256;80;21521;-69
2022/02/26 07:31:52;;;;;;;4.53;3.52;;;;;;;13.66;53.34;100511.31;1784155;80;21063;-70
2022/02/26 07:34:20;;;;;;;3.90;3.25;;;;;;;13.68;53.33;100512.80;1764529;81;21656;-70
2022/02/26 07:36:46;;;;;;;3.95;3.30;;;;;;;13.69;53.32;100511.78;1783138;80;21059;-70
2022/02/26 07:39:14;;;;;;;4.22;3.45;;;;;;;13.70;53.32;100511.31;1787140;80;21087;-70
2022/02/26 07:41:40;;;;;;;3.62;3.25;;;;;;;13.73;53.30;100511.80;1787226;80;21020;-70
2022/02/26 07:44:07;;;;;;;3.98;3.00;;;;;;;13.75;53.29;100516.95;1787191;80;21072;-69
2022/02/26 07:46:33;;;;;;;3.50;3.05;;;;;;;13.76;53.31;100514.12;1787645;80;21044;-70
2022/02/26 07:49:00;;;;;;;3.75;2.87;;;;;;;13.78;53.29;100520.62;1785750;80;21122;-68
2022/02/26 07:51:27;;;;;;;3.72;3.27;;;;;;;13.81;53.26;100522.12;1784174;80;21630;-69
2022/02/26 07:53:53;;;;;;;3.77;3.30;;;;;;;13.83;53.26;100525.45;1762084;80;21001;-69
2022/02/26 07:56:20;;;;;;;4.33;3.20;;;;;;;13.84;53.25;100524.45;1828161;77;21493;-69
2022/02/26 07:58:46;;;;;;;3.45;2.95;;;;;;;13.87;53.25;100526.77;1823173;77;21017;-68
2022/02/26 08:01:13;;;;;;;3.72;3.08;;;;;;;13.89;53.23;100522.13;1824044;77;21937;-70
2022/02/26 08:03:39;;;;;;;3.27;2.87;;;;;;;13.92;53.22;100530.59;1843827;77;21047;-69
2022/02/26 08:06:06;;;;;;;3.65;3.00;;;;;;;13.94;53.21;100533.11;1859687;77;21450;-70
2022/02/26 08:08:32;;;;;;;3.70;2.77;;;;;;;13.96;53.22;100535.11;1829196;77;21009;-69
2022/02/26 08:10:59;;;;;;;3.72;3.12;;;;;;;13.99;53.21;100536.11;1826164;77;21021;-69
2022/02/26 08:13:26;;;;;;;3.08;2.77;;;;;;;14.00;53.21;100541.77;1790792;80;21134;-70
2022/02/26 08:15:52;;;;;;;3.02;2.60;;;;;;;14.04;53.22;100543.60;1790813;79;21001;-68
2022/02/26 08:18:19;;;;;;;3.60;3.22;;;;;;;14.06;53.26;100544.27;1790714;79;21010;-69
2022/02/26 08:20:45;;;;;;;3.62;2.98;;;;;;;14.08;53.30;100544.92;1790839;80;21076;-69
2022/02/26 08:23:11;;;;;;;3.33;2.77;;;;;;;14.11;53.35;100547.27;1813090;77;20979;-70
2022/02/26 08:25:38;;;;;;;3.60;2.85;;;;;;;14.14;53.39;100542.41;1821294;78;21223;-70
2022/02/26 08:28:04;;;;;;;3.20;2.80;;;;;;;14.18;53.45;100538.90;1813214;78;21039;-69
2022/02/26 08:30:31;;;;;;;3.08;2.60;;;;;;;14.21;53.48;100541.72;1814405;79;21065;-69
2022/02/26 08:32:58;;;;;;;4.08;2.72;;;;;;;14.25;53.47;100545.71;1814314;79;20994;-68
2022/02/26 08:35:25;;;;;;;3.05;2.72;;;;;;;14.28;53.38;100546.72;1814527;78;21030;-68
2022/02/26 08:37:51;;;;;;;3.65;2.60;;;;;;;14.31;53.28;100542.34;1814376;79;21135;-69
2022/02/26 08:40:18;;;;;;;4.72;3.65;;;;;;;14.34;53.28;100550.03;1814433;79;21014;-69
2022/02/26 08:42:45;;;;;;;3.35;2.37;;;;;;;14.38;53.26;100553.19;1814750;79;21545;-69
2022/02/26 08:45:11;;;;;;;3.20;2.90;;;;;;;14.41;53.21;100552.34;1813561;78;21065;-69
2022/02/26 08:47:38;;;;;;;2.60;2.40;;;;;;;14.44;53.19;100555.99;1814522;79;20986;-71
2022/02/26 08:50:07;;;;;;;3.10;2.80;;;;;;;14.48;53.14;100555.97;1786974;79;21118;-70
2022/02/26 08:52:34;;;;;;;3.87;2.95;;;;;;;14.53;53.12;100560.30;1782398;79;21171;-70
2022/02/26 08:55:01;;;;;;;2.92;2.62;;;;;;;14.57;53.06;100562.67;1801769;79;21015;-69
2022/02/26 08:57:29;;;;;;;2.98;2.72;;;;;;;14.62;53.05;100564.30;1814522;78;20994;-70
2022/02/26 08:59:55;;;;;;;2.70;2.47;;;;;;;14.65;53.00;100559.44;1830242;78;20990;-70
2022/02/26 09:02:22;;;;;;;3.50;2.87;;;;;;;14.69;52.94;100559.42;1793225;79;21750;-71
2022/02/26 09:04:49;;;;;;;3.42;3.00;;;;;;;14.74;52.89;100563.75;1804420;79;21013;-71
2022/02/26 09:07:15;;;;;;;3.75;2.47;;;;;;;14.79;52.89;100568.56;1820905;78;20986;-69
2022/02/26 09:09:43;;;;;;;3.70;2.80;;;;;;;14.83;52.89;100567.20;1823017;77;21010;-69
2022/02/26 09:12:10;;;;;;;3.33;2.52;;;;;;;14.89;52.96;100565.66;1814562;79;21021;-69
2022/02/26 09:14:36;;;;;;;3.02;2.52;;;;;;;14.96;52.92;100567.97;1814939;79;21084;-69
2022/02/26 09:17:05;;;;;;;3.47;2.60;;;;;;;15.00;52.92;100577.30;1814344;79;22066;-69
2022/02/26 09:19:33;;;;;;;3.80;2.60;;;;;;;15.05;52.91;100580.30;1813906;79;21054;-70
2022/02/26 09:22:03;;;;;;;2.83;2.42;;;;;;;15.10;52.91;100573.92;1813276;77;21099;-70
2022/02/26 09:24:27;;;;;;;2.87;2.60;;;;;;;15.16;52.89;100571.01;1807683;79;21033;-70
2022/02/26 09:26:54;;;;;;;2.25;1.92;;;;;;;15.23;52.82;100565.28;1807811;78;22332;-70
2022/02/26 09:29:21;;;;;;;3.33;2.70;;;;;;;15.30;52.99;100568.09;1808252;79;21162;-71
2022/02/26 09:31:50;;;;;;;2.65;2.40;;;;;;;15.36;53.04;100569.22;1807851;79;21593;-70
2022/02/26 09:34:15;;;;;;;3.10;2.70;;;;;;;15.43;53.50;100575.02;1807725;79;21000;-70
2022/02/26 09:36:43;;;;;;;2.60;2.40;;;;;;;15.51;53.78;100568.73;1787687;79;21526;-70
2022/02/26 09:39:09;;;;;;;2.60;2.30;;;;;;;15.58;54.03;100568.86;1782749;79;21099;-69
2022/02/26 09:41:37;;;;;;;3.05;2.50;;;;;;;15.66;54.14;100567.44;1782470;80;21045;-68
2022/02/26 09:44:05;;;;;;;1.98;1.80;;;;;;;15.71;54.23;100567.23;1782443;80;20981;-69
2022/02/26 09:46:32;;;;;;;3.15;2.37;;;;;;;15.80;54.40;100571.20;1782303;80;21045;-68
2022/02/26 09:48:58;;;;;;;2.37;2.17;;;;;;;15.85;54.53;100574.17;1808170;77;21034;-69
2022/02/26 09:51:24;;;;;;;2.55;2.35;;;;;;;15.96;54.52;100576.92;1846803;76;21478;-69
2022/02/26 09:53:51;;;;;;;2.60;2.35;;;;;;;16.02;54.55;100577.02;1808873;79;21084;-70
2022/02/26 09:56:18;;;;;;;2.60;2.37;;;;;;;16.11;54.65;100583.13;1814393;79;21080;-69
2022/02/26 09:58:44;;;;;;;2.62;2.10;;;;;;;16.20;54.57;100577.16;1814792;79;21069;-69
2022/02/26 10:01:11;;;;;;;2.05;1.85;;;;;;;16.28;54.40;100577.06;1814286;79;21018;-70
2022/02/26 10:03:37;;;;;;;2.60;2.40;;;;;;;16.38;54.29;100592.87;1821237;77;21158;-69
2022/02/26 10:06:16;;;;;;;2.30;2.10;;;;;;;16.46;54.08;100587.44;1827710;77;20986;-69
2022/02/26 10:08:49;;;;;;;2.52;1.82;;;;;;;16.55;53.97;100589.49;1814433;79;21037;-69
2022/02/26 10:11:31;;;;;;;2.22;2.02;;;;;;;16.63;53.83;100594.27;1785182;78;21037;-69
2022/02/26 10:14:09;;;;;;;2.00;1.85;;;;;;;16.71;53.72;100592.81;1825304;78;21045;-70
2022/02/26 10:16:54;;;;;;;2.27;2.08;;;;;;;16.79;53.63;100590.53;1814516;79;21818;-69
2022/02/26 10:19:31;;;;;;;2.65;2.02;;;;;;;16.88;53.58;100597.48;1814664;79;21085;-71
2022/02/26 10:22:01;;;;;;;2.37;1.87;;;;;;;16.97;53.41;100596.84;1813336;77;21056;-71
2022/02/26 10:24:29;;;;;;;2.17;1.95;;;;;;;17.07;53.32;100606.79;1807178;79;21024;-71
2022/02/26 10:27:05;;;;;;;2.20;1.90;;;;;;;17.17;53.21;100602.45;1801358;78;21029;-68
2022/02/26 10:29:27;;;;;;;1.90;1.80;;;;;;;17.26;53.13;100611.20;1792331;79;21217;-70
2022/02/26 10:31:57;;;;;;;2.10;1.90;;;;;;;17.35;53.06;100599.33;1793400;80;21134;-70
2022/02/26 10:34:38;;;;;;;2.10;1.87;;;;;;;17.47;52.94;100603.67;1792652;79;21072;-70
2022/02/26 10:37:13;;;;;;;2.05;1.80;;;;;;;17.56;52.84;100604.35;1793410;80;21013;-69
2022/02/26 10:39:48;;;;;;;2.55;2.35;;;;;;;17.67;52.72;100611.41;1793438;79;21018;-70
2022/02/26 10:42:28;;;;;;;2.00;1.80;;;;;;;17.78;52.63;100610.55;1793417;80;21600;-69
2022/02/26 10:45:14;;;;;;;2.33;1.80;;;;;;;17.88;52.53;100609.73;1793512;78;21584;-70
2022/02/26 10:47:43;;;;;;;2.37;2.17;;;;;;;17.98;52.38;100609.39;1793600;80;21025;-70
2022/02/26 10:50:20;;;;;;;2.30;1.72;;;;;;;18.07;52.29;100605.01;1852321;77;21783;-70
2022/02/26 10:53:01;;;;;;;2.08;1.57;;;;;;;18.17;52.23;100607.34;1859878;77;20985;-70
2022/02/26 10:55:52;;;;;;;2.08;1.87;;;;;;;18.27;52.08;100611.88;1793731;79;21470;-70
2022/02/26 10:58:28;;;;;;;2.45;1.87;;;;;;;18.37;52.02;100611.53;1793442;79;21073;-69
2022/02/26 11:01:06;;;;;;;1.70;1.60;;;;;;;18.47;51.95;100609.82;1808571;78;21069;-69
2022/02/26 11:03:35;;;;;;;2.05;1.85;;;;;;;18.57;51.84;100610.80;1824331;78;21006;-70
2022/02/26 11:06:04;;;;;;;2.95;2.17;;;;;;;18.66;51.75;100607.74;1806675;78;21056;-68
2022/02/26 11:08:31;;;;;;;2.00;1.80;;;;;;;18.75;51.72;100607.56;1830482;77;21122;-69
2022/02/26 11:10:59;;;;;;;2.37;1.92;;;;;;;18.85;51.62;100599.96;1834067;77;21060;-69
2022/02/26 11:13:27;;;;;;;2.05;1.85;;;;;;;18.96;51.58;100612.02;1826183;78;21544;-69
2022/02/26 11:15:56;;;;;;;2.40;1.92;;;;;;;19.05;51.48;100605.44;1826095;78;21065;-69
2022/02/26 11:18:25;;;;;;;1.85;1.70;;;;;;;19.16;51.39;100613.42;1811431;77;21009;-69
2022/02/26 11:20:51;;;;;;;1.70;1.60;;;;;;;19.26;51.28;100617.92;1846448;77;21259;-69
2022/02/26 11:23:18;;;;;;;2.22;2.02;;;;;;;19.36;51.19;100622.39;1831306;77;21482;-68
2022/02/26 11:25:45;;;;;;;1.70;1.60;;;;;;;19.48;51.09;100632.56;1826126;78;21071;-70
2022/02/26 11:28:14;;;;;;;1.80;1.70;;;;;;;19.58;51.00;100637.03;1816207;77;21068;-70